createdAt,value
2022-12-03T00:00:03.249Z,103130.84
2022-12-03T00:02:32.475Z,103120.94
2022-12-03T00:04:59.779Z,103116.53
2022-12-03T00:07:27.097Z,103122.25
2022-12-03T00:09:54.511Z,103121.25
2022-12-03T00:12:21.773Z,103123.78
2022-12-03T00:14:48.966Z,103117.50
2022-12-03T00:17:16.272Z,103122.75
2022-12-03T00:19:43.497Z,103124.16
2022-12-03T00:22:12.754Z,103117.47
2022-12-03T00:24:40.320Z,103120.72
2022-12-03T00:27:07.637Z,103115.13
2022-12-03T00:29:34.915Z,103122.34
2022-12-03T00:32:02.285Z,103127.03
2022-12-03T00:34:29.592Z,103123.63
2022-12-03T00:36:56.834Z,103126.56
2022-12-03T00:39:24.148Z,103125.94
2022-12-03T00:41:51.363Z,103124.13
2022-12-03T00:44:18.691Z,103118.72
2022-12-03T00:46:45.997Z,103120.47
2022-12-03T00:49:13.358Z,103119.13
2022-12-03T00:51:40.591Z,103120.06
2022-12-03T00:54:08.033Z,103122.25
2022-12-03T00:56:35.269Z,103115.03
2022-12-03T00:59:02.487Z,103122.59
2022-12-03T01:01:29.805Z,103121.19
2022-12-03T01:03:57.103Z,103126.69
2022-12-03T01:06:24.300Z,103125.69
2022-12-03T01:08:51.563Z,103116.00
2022-12-03T01:11:37.286Z,103128.28
2022-12-03T01:14:06.294Z,103121.56
2022-12-03T01:16:33.673Z,103117.59
2022-12-03T01:19:00.979Z,103122.03
2022-12-03T01:21:28.335Z,103115.19
2022-12-03T01:23:56.496Z,103118.88
2022-12-03T01:26:23.826Z,103118.13
2022-12-03T01:28:51.378Z,103116.09
2022-12-03T01:31:37.307Z,103110.97
2022-12-03T01:34:05.176Z,103123.66
2022-12-03T01:36:34.316Z,103110.28
2022-12-03T01:39:02.435Z,103117.09
2022-12-03T01:41:30.045Z,103119.09
2022-12-03T01:43:57.902Z,103123.44
2022-12-03T01:46:27.382Z,103124.09
2022-12-03T01:48:55.703Z,103123.91
2022-12-03T01:51:23.163Z,103118.25
2022-12-03T01:53:51.741Z,103117.25
2022-12-03T01:56:19.316Z,103121.84
2022-12-03T01:58:47.180Z,103112.97
2022-12-03T02:01:15.933Z,103108.69
2022-12-03T02:03:43.872Z,103122.56
2022-12-03T02:06:18.570Z,103109.72
2022-12-03T02:08:46.662Z,103117.66
2022-12-03T02:11:14.052Z,103121.47
2022-12-03T02:13:42.039Z,103115.97
2022-12-03T02:16:09.501Z,103109.63
2022-12-03T02:18:36.874Z,103111.81
2022-12-03T02:21:19.441Z,103114.19
2022-12-03T02:24:06.935Z,103123.09
2022-12-03T02:26:34.324Z,103111.41
2022-12-03T02:29:02.562Z,103117.31
2022-12-03T02:31:29.956Z,103110.88
2022-12-03T02:33:57.411Z,103109.78
2022-12-03T02:36:24.732Z,103109.22
2022-12-03T02:38:52.191Z,103104.22
2022-12-03T02:41:39.353Z,103109.63
2022-12-03T02:44:07.109Z,103118.75
2022-12-03T02:46:35.011Z,103119.50
2022-12-03T02:49:03.376Z,103108.91
2022-12-03T02:51:31.461Z,103108.00
2022-12-03T02:53:58.912Z,103107.88
2022-12-03T02:56:29.394Z,103108.19
2022-12-03T02:58:58.483Z,103105.03
2022-12-03T03:01:25.998Z,103115.78
2022-12-03T03:03:54.019Z,103114.91
2022-12-03T03:06:23.307Z,103104.66
2022-12-03T03:08:50.828Z,103104.41
2022-12-03T03:11:18.090Z,103109.97
2022-12-03T03:13:45.401Z,103099.03
2022-12-03T03:16:12.729Z,103100.81
2022-12-03T03:18:40.528Z,103095.31
2022-12-03T03:21:07.956Z,103096.16
2022-12-03T03:23:35.241Z,103094.25
2022-12-03T03:26:05.513Z,103098.75
2022-12-03T03:28:34.896Z,103103.84
2022-12-03T03:31:04.198Z,103095.69
2022-12-03T03:33:32.095Z,103093.38
2022-12-03T03:36:02.628Z,103092.31
2022-12-03T03:38:30.470Z,103096.09
2022-12-03T03:40:59.063Z,103089.31
2022-12-03T03:43:26.486Z,103093.75
2022-12-03T03:45:54.178Z,103092.31
2022-12-03T03:48:21.987Z,103095.00
2022-12-03T03:50:50.523Z,103084.97
2022-12-03T03:53:18.587Z,103090.44
2022-12-03T03:55:46.069Z,103092.16
2022-12-03T03:58:13.658Z,103096.66
2022-12-03T04:00:42.798Z,103094.97
2022-12-03T04:03:10.804Z,103101.66
2022-12-03T04:05:38.576Z,103096.47
2022-12-03T04:08:06.138Z,103086.78
2022-12-03T04:10:52.036Z,103086.22
2022-12-03T04:13:19.331Z,103100.81
2022-12-03T04:15:46.536Z,103097.72
2022-12-03T04:18:44.806Z,103085.41
2022-12-03T04:21:37.385Z,103090.88
2022-12-03T04:24:05.854Z,103080.69
2022-12-03T04:26:51.639Z,103084.75
2022-12-03T04:29:19.700Z,103085.66
2022-12-03T04:32:05.612Z,103073.88
2022-12-03T04:34:52.099Z,103072.28
2022-12-03T04:37:20.086Z,103077.41
2022-12-03T04:39:47.630Z,103074.47
2022-12-03T04:42:15.063Z,103071.34
2022-12-03T04:44:42.435Z,103062.56
2022-12-03T04:47:11.213Z,103066.69
2022-12-03T04:49:43.128Z,103062.75
2022-12-03T04:52:12.112Z,103058.50
2022-12-03T04:54:39.670Z,103069.72
2022-12-03T04:57:07.474Z,103060.59
2022-12-03T04:59:34.842Z,103062.66
2022-12-03T05:02:02.299Z,103065.53
2022-12-03T05:04:29.737Z,103064.03
2022-12-03T05:06:57.050Z,103075.53
2022-12-03T05:09:24.340Z,103065.66
2022-12-03T05:11:51.622Z,103075.69
2022-12-03T05:14:19.012Z,103071.03
2022-12-03T05:16:46.330Z,103067.84
2022-12-03T05:19:13.659Z,103070.53
2022-12-03T05:21:40.879Z,103064.53
2022-12-03T05:24:08.140Z,103063.44
2022-12-03T05:26:35.597Z,103064.22
2022-12-03T05:29:02.789Z,103059.88
2022-12-03T05:31:30.195Z,103062.72
2022-12-03T05:33:57.543Z,103062.34
2022-12-03T05:36:25.676Z,103064.44
2022-12-03T05:38:52.912Z,103052.72
2022-12-03T05:41:39.009Z,103052.66
2022-12-03T05:44:06.435Z,103052.34
2022-12-03T05:46:33.911Z,103048.81
2022-12-03T05:49:01.346Z,103060.25
2022-12-03T05:51:28.582Z,103056.94
2022-12-03T05:53:57.582Z,103060.88
2022-12-03T05:56:25.099Z,103054.41
2022-12-03T05:58:52.339Z,103059.50
2022-12-03T06:01:19.527Z,103054.84
2022-12-03T06:03:47.159Z,103053.88
2022-12-03T06:06:14.490Z,103050.72
2022-12-03T06:08:42.075Z,103050.25
2022-12-03T06:11:09.323Z,103055.06
2022-12-03T06:13:36.605Z,103056.13
2022-12-03T06:16:03.981Z,103051.69
2022-12-03T06:18:31.306Z,103048.94
2022-12-03T06:20:58.594Z,103050.13
2022-12-03T06:23:25.879Z,103051.22
2022-12-03T06:25:53.210Z,103058.28
2022-12-03T06:28:20.426Z,103052.75
2022-12-03T06:30:47.769Z,103060.38
2022-12-03T06:33:15.299Z,103058.13
2022-12-03T06:35:42.517Z,103062.69
2022-12-03T06:38:09.723Z,103057.03
2022-12-03T06:40:38.389Z,103062.00
2022-12-03T06:43:05.669Z,103055.88
2022-12-03T06:45:32.915Z,103048.63
2022-12-03T06:48:00.318Z,103052.19
2022-12-03T06:50:27.515Z,103055.31
2022-12-03T06:52:54.799Z,103061.34
2022-12-03T06:55:22.022Z,103060.88
2022-12-03T06:57:50.024Z,103062.66
2022-12-03T07:00:17.394Z,103059.47
2022-12-03T07:02:45.177Z,103068.56
2022-12-03T07:05:14.023Z,103066.16
2022-12-03T07:07:41.307Z,103062.56
2022-12-03T07:10:08.861Z,103067.97
2022-12-03T07:12:36.215Z,103063.69
2022-12-03T07:15:03.673Z,103080.16
2022-12-03T07:17:31.021Z,103077.06
2022-12-03T07:19:58.201Z,103082.16
2022-12-03T07:22:25.568Z,103083.81
2022-12-03T07:24:53.235Z,103079.25
2022-12-03T07:27:20.807Z,103086.66
2022-12-03T07:29:47.971Z,103085.44
2022-12-03T07:32:15.434Z,103091.41
2022-12-03T07:34:42.697Z,103084.72
2022-12-03T07:37:09.951Z,103081.13
2022-12-03T07:39:37.271Z,103078.75
2022-12-03T07:42:04.691Z,103077.50
2022-12-03T07:44:32.090Z,103082.88
2022-12-03T07:46:59.468Z,103086.53
2022-12-03T07:49:27.126Z,103083.19
2022-12-03T07:51:54.895Z,103082.03
2022-12-03T07:54:22.840Z,103080.50
2022-12-03T07:56:50.148Z,103087.19
2022-12-03T07:59:17.594Z,103087.22
2022-12-03T08:01:45.097Z,103090.34
2022-12-03T08:04:18.253Z,103089.53
2022-12-03T08:06:46.240Z,103086.34
2022-12-03T08:09:16.199Z,103082.47
2022-12-03T08:11:45.557Z,103091.78
2022-12-03T08:14:17.020Z,103086.41
2022-12-03T08:16:45.514Z,103086.09
2022-12-03T08:19:13.699Z,103086.41
2022-12-03T08:21:41.717Z,103082.69
2022-12-03T08:24:14.794Z,103074.34
2022-12-03T08:26:44.330Z,103080.50
2022-12-03T08:29:12.891Z,103085.56
2022-12-03T08:31:40.365Z,103080.81
2022-12-03T08:34:27.342Z,103083.56
2022-12-03T08:37:02.239Z,103078.16
2022-12-03T08:39:33.796Z,103079.66
2022-12-03T08:42:35.452Z,103084.31
2022-12-03T08:45:21.276Z,103072.94
2022-12-03T08:47:48.576Z,103075.13
2022-12-03T08:50:37.949Z,103072.28
2022-12-03T08:53:08.141Z,103074.03
2022-12-03T08:55:37.263Z,103068.47
2022-12-03T08:58:21.778Z,103067.34
2022-12-03T09:00:53.317Z,103065.13
2022-12-03T09:03:20.574Z,103063.56
2022-12-03T09:05:47.840Z,103068.16
2022-12-03T09:08:15.277Z,103068.47
2022-12-03T09:10:42.665Z,103075.22
2022-12-03T09:13:10.231Z,103066.41
2022-12-03T09:15:37.755Z,103071.91
2022-12-03T09:18:05.103Z,103068.69
2022-12-03T09:20:32.416Z,103066.28
2022-12-03T09:22:59.639Z,103064.34
2022-12-03T09:25:26.843Z,103056.63
2022-12-03T09:27:54.390Z,103069.06
2022-12-03T09:30:21.646Z,103065.47
2022-12-03T09:32:48.882Z,103061.66
2022-12-03T09:35:16.231Z,103055.63
2022-12-03T09:37:43.726Z,103058.94
2022-12-03T09:40:11.637Z,103047.34
2022-12-03T09:42:38.949Z,103051.28
2022-12-03T09:45:10.933Z,103057.91
2022-12-03T09:47:39.896Z,103050.44
2022-12-03T09:50:07.563Z,103053.91
2022-12-03T09:52:34.871Z,103040.41
2022-12-03T09:55:05.791Z,103047.22
2022-12-03T09:57:33.173Z,103052.94
2022-12-03T10:00:00.508Z,103049.78
2022-12-03T10:02:29.597Z,103045.97
2022-12-03T10:04:58.143Z,103049.91
2022-12-03T10:07:26.001Z,103049.97
2022-12-03T10:09:53.655Z,103042.09
2022-12-03T10:12:23.419Z,103042.63
2022-12-03T10:14:51.869Z,103036.03
2022-12-03T10:17:19.786Z,103028.88
2022-12-03T10:19:48.739Z,103035.72
2022-12-03T10:22:16.036Z,103027.03
2022-12-03T10:24:45.038Z,103029.31
2022-12-03T10:27:29.606Z,103025.25
2022-12-03T10:29:58.019Z,103022.63
2022-12-03T10:32:45.595Z,103024.50
2022-12-03T10:35:14.394Z,103029.66
2022-12-03T10:38:11.229Z,103024.84
2022-12-03T10:40:39.329Z,103029.66
2022-12-03T10:43:18.533Z,103025.19
2022-12-03T10:45:47.108Z,103024.31
2022-12-03T10:48:14.394Z,103016.78
2022-12-03T10:50:48.076Z,103011.59
2022-12-03T10:53:16.053Z,103017.00
2022-12-03T10:55:44.490Z,103011.28
2022-12-03T10:58:21.048Z,103010.13
2022-12-03T11:00:49.047Z,102999.50
2022-12-03T11:03:18.152Z,103004.09
2022-12-03T11:05:45.511Z,102991.13
2022-12-03T11:08:20.110Z,102993.81
2022-12-03T11:11:01.160Z,102998.28
2022-12-03T11:13:34.282Z,102987.38
2022-12-03T11:16:02.798Z,102997.38
2022-12-03T11:18:36.006Z,102991.53
2022-12-03T11:21:03.621Z,102985.31
2022-12-03T11:23:46.065Z,102998.44
2022-12-03T11:26:18.822Z,102992.34
2022-12-03T11:28:46.726Z,102994.34
2022-12-03T11:31:32.427Z,102990.88
2022-12-03T11:34:18.334Z,102979.81
2022-12-03T11:37:15.237Z,102978.81
2022-12-03T11:39:52.121Z,102976.22
2022-12-03T11:42:25.749Z,102977.66
2022-12-03T11:45:05.465Z,102978.38
2022-12-03T11:47:37.120Z,102961.41
2022-12-03T11:50:20.567Z,102969.28
2022-12-03T11:52:55.702Z,102964.19
2022-12-03T11:55:22.945Z,102963.84
2022-12-03T11:57:57.136Z,102961.13
2022-12-03T12:00:24.657Z,102954.28
2022-12-03T12:02:52.949Z,102957.84
2022-12-03T12:05:22.366Z,102956.50
2022-12-03T12:07:50.264Z,102948.00
2022-12-03T12:10:36.378Z,102947.75
2022-12-03T12:13:03.636Z,102949.91
2022-12-03T12:15:33.821Z,102950.22
2022-12-03T12:18:19.608Z,102948.34
2022-12-03T12:20:46.871Z,102945.28
2022-12-03T12:23:22.157Z,102940.84
2022-12-03T12:25:54.244Z,102934.00
2022-12-03T12:28:21.787Z,102938.31
2022-12-03T12:30:48.988Z,102940.00
2022-12-03T12:33:23.623Z,102936.34
2022-12-03T12:35:51.332Z,102937.69
2022-12-03T12:38:20.248Z,102934.94
2022-12-03T12:40:49.448Z,102934.22
2022-12-03T12:43:24.149Z,102929.88
2022-12-03T12:45:55.840Z,102933.13
2022-12-03T12:48:28.007Z,102932.06
2022-12-03T12:51:06.397Z,102922.81
2022-12-03T12:53:35.259Z,102933.47
2022-12-03T12:56:15.960Z,102929.53
2022-12-03T12:58:43.264Z,102926.03
2022-12-03T13:01:17.088Z,102911.34
2022-12-03T13:03:44.465Z,102917.59
2022-12-03T13:06:14.977Z,102920.78
2022-12-03T13:08:47.152Z,102915.34
2022-12-03T13:11:29.757Z,102919.47
2022-12-03T13:13:57.159Z,102915.00
2022-12-03T13:16:33.815Z,102916.41
2022-12-03T13:19:01.827Z,102909.69
2022-12-03T13:21:39.753Z,102908.56
2022-12-03T13:24:30.813Z,102908.91
2022-12-03T13:26:59.705Z,102914.03
2022-12-03T13:29:27.606Z,102907.28
2022-12-03T13:31:56.594Z,102899.28
2022-12-03T13:34:27.777Z,102905.72
2022-12-03T13:36:58.483Z,102908.69
2022-12-03T13:39:25.994Z,102904.09
2022-12-03T13:42:12.045Z,102903.50
2022-12-03T13:44:49.315Z,102900.19
2022-12-03T13:47:19.750Z,102895.63
2022-12-03T13:49:54.214Z,102900.94
2022-12-03T13:52:23.504Z,102905.00
2022-12-03T13:54:52.567Z,102901.69
2022-12-03T13:57:19.947Z,102901.84
2022-12-03T13:59:47.219Z,102901.75
2022-12-03T14:02:14.620Z,102893.09
2022-12-03T14:04:42.029Z,102896.47
2022-12-03T14:07:09.243Z,102898.53
2022-12-03T14:09:37.544Z,102895.09
2022-12-03T14:12:23.629Z,102889.44
2022-12-03T14:14:51.140Z,102888.84
2022-12-03T14:17:18.398Z,102893.31
2022-12-03T14:19:46.072Z,102886.63
2022-12-03T14:22:13.306Z,102889.69
2022-12-03T14:24:40.665Z,102887.28
2022-12-03T14:27:08.041Z,102886.06
2022-12-03T14:29:35.463Z,102877.72
2022-12-03T14:32:02.812Z,102881.19
2022-12-03T14:34:30.228Z,102885.53
2022-12-03T14:36:57.512Z,102877.00
2022-12-03T14:39:25.871Z,102873.75
2022-12-03T14:42:11.831Z,102884.31
2022-12-03T14:44:43.643Z,102881.38
2022-12-03T14:47:11.599Z,102884.41
2022-12-03T14:49:39.052Z,102889.06
2022-12-03T14:52:11.323Z,102889.53
2022-12-03T14:54:42.244Z,102884.63
2022-12-03T14:57:13.642Z,102885.66
2022-12-03T14:59:41.665Z,102874.72
2022-12-03T15:02:09.605Z,102888.84
2022-12-03T15:04:37.602Z,102883.69
2022-12-03T15:07:04.862Z,102886.31
2022-12-03T15:09:32.130Z,102886.38
2022-12-03T15:12:00.188Z,102880.91
2022-12-03T15:14:27.787Z,102882.81
2022-12-03T15:16:55.145Z,102882.66
2022-12-03T15:19:22.418Z,102886.31
2022-12-03T15:21:49.684Z,102886.91
2022-12-03T15:24:17.155Z,102881.25
2022-12-03T15:26:44.523Z,102890.34
2022-12-03T15:29:12.481Z,102886.09
2022-12-03T15:31:39.772Z,102888.09
2022-12-03T15:34:07.113Z,102890.13
2022-12-03T15:36:34.389Z,102885.78
2022-12-03T15:39:01.677Z,102887.53
2022-12-03T15:41:29.583Z,102885.66
2022-12-03T15:43:58.568Z,102886.09
2022-12-03T15:46:26.281Z,102887.50
2022-12-03T15:48:53.990Z,102887.19
2022-12-03T15:51:21.318Z,102882.28
2022-12-03T15:53:48.725Z,102882.66
2022-12-03T15:56:16.181Z,102890.47
2022-12-03T15:58:43.815Z,102893.84
2022-12-03T16:01:13.517Z,102886.72
2022-12-03T16:03:41.836Z,102885.66
2022-12-03T16:06:09.199Z,102890.34
2022-12-03T16:08:36.524Z,102884.44
2022-12-03T16:11:04.289Z,102889.50
2022-12-03T16:13:31.703Z,102886.41
2022-12-03T16:15:59.094Z,102902.16
2022-12-03T16:18:26.459Z,102896.09
2022-12-03T16:20:53.731Z,102887.38
2022-12-03T16:23:21.044Z,102882.78
2022-12-03T16:25:48.280Z,102889.63
2022-12-03T16:28:15.687Z,102888.31
2022-12-03T16:30:42.927Z,102889.69
2022-12-03T16:33:10.310Z,102891.66
2022-12-03T16:35:38.624Z,102890.59
2022-12-03T16:38:06.127Z,102882.31
2022-12-03T16:40:33.344Z,102888.84
2022-12-03T16:43:00.917Z,102883.88
2022-12-03T16:45:51.659Z,102879.44
2022-12-03T16:48:19.343Z,102883.41
2022-12-03T16:50:46.635Z,102876.84
2022-12-03T16:53:14.349Z,102882.56
2022-12-03T16:55:41.963Z,102876.06
2022-12-03T16:58:09.291Z,102887.56
2022-12-03T17:00:36.650Z,102882.03
2022-12-03T17:03:04.170Z,102893.06
2022-12-03T17:05:31.580Z,102887.06
2022-12-03T17:07:58.892Z,102886.84
2022-12-03T17:10:26.209Z,102889.44
2022-12-03T17:13:10.370Z,102887.63
2022-12-03T17:15:38.470Z,102889.41
2022-12-03T17:18:06.113Z,102890.63
2022-12-03T17:20:33.520Z,102887.44
2022-12-03T17:23:00.813Z,102882.28
2022-12-03T17:25:28.277Z,102892.47
2022-12-03T17:27:55.740Z,102893.66
2022-12-03T17:30:23.145Z,102887.56
2022-12-03T17:32:50.570Z,102900.06
2022-12-03T17:35:17.921Z,102895.88
2022-12-03T17:37:45.457Z,102900.47
2022-12-03T17:40:14.174Z,102894.69
2022-12-03T17:42:41.404Z,102897.78
2022-12-03T17:45:09.011Z,102891.66
2022-12-03T17:47:36.213Z,102899.88
2022-12-03T17:50:03.824Z,102896.84
2022-12-03T17:52:31.056Z,102893.28
2022-12-03T17:55:23.634Z,102892.94
2022-12-03T17:57:45.737Z,102889.38
2022-12-03T18:00:13.404Z,102903.03
2022-12-03T18:02:42.283Z,102897.03
2022-12-03T18:05:09.746Z,102899.31
2022-12-03T18:07:37.084Z,102890.22
2022-12-03T18:10:04.864Z,102904.00
2022-12-03T18:12:32.242Z,102895.19
2022-12-03T18:14:59.507Z,102898.75
2022-12-03T18:17:26.912Z,102896.63
2022-12-03T18:19:54.471Z,102892.81
2022-12-03T18:22:22.046Z,102899.06
2022-12-03T18:24:51.950Z,102899.75
2022-12-03T18:27:23.033Z,102900.06
2022-12-03T18:29:50.371Z,102898.94
2022-12-03T18:32:28.900Z,102896.81
2022-12-03T18:34:57.731Z,102901.84
2022-12-03T18:37:28.751Z,102895.97
2022-12-03T18:39:57.096Z,102898.13
2022-12-03T18:42:25.349Z,102896.31
2022-12-03T18:44:53.884Z,102904.66
2022-12-03T18:47:23.343Z,102895.97
2022-12-03T18:49:51.111Z,102892.69
2022-12-03T18:52:19.909Z,102896.56
2022-12-03T18:54:47.497Z,102898.31
2022-12-03T18:57:15.431Z,102892.34
2022-12-03T18:59:42.735Z,102896.47
2022-12-03T19:02:38.520Z,102893.44
2022-12-03T19:05:02.828Z,102902.78
2022-12-03T19:07:30.296Z,102898.59
2022-12-03T19:09:57.713Z,102898.41
2022-12-03T19:12:25.046Z,102901.34
2022-12-03T19:14:52.445Z,102901.69
2022-12-03T19:17:19.847Z,102909.19
2022-12-03T19:19:47.057Z,102904.56
2022-12-03T19:22:14.276Z,102911.81
2022-12-03T19:24:41.674Z,102899.94
2022-12-03T19:27:08.843Z,102910.31
2022-12-03T19:29:36.240Z,102914.88
2022-12-03T19:32:03.523Z,102907.47
2022-12-03T19:34:31.017Z,102909.50
2022-12-03T19:36:58.244Z,102910.72
2022-12-03T19:39:25.504Z,102914.41
2022-12-03T19:41:52.763Z,102914.59
2022-12-03T19:44:20.428Z,102913.56
2022-12-03T19:46:49.052Z,102913.72
2022-12-03T19:49:18.600Z,102916.66
2022-12-03T19:51:46.044Z,102915.34
2022-12-03T19:54:13.859Z,102912.88
2022-12-03T19:56:41.460Z,102921.41
2022-12-03T19:59:08.741Z,102919.03
2022-12-03T20:01:36.225Z,102915.22
2022-12-03T20:04:03.934Z,102926.91
2022-12-03T20:06:32.642Z,102923.19
2022-12-03T20:09:01.637Z,102929.81
2022-12-03T20:11:30.681Z,102929.19
2022-12-03T20:13:59.603Z,102924.50
2022-12-03T20:16:26.962Z,102927.66
2022-12-03T20:18:58.500Z,102925.16
2022-12-03T20:21:26.371Z,102924.94
2022-12-03T20:23:53.687Z,102924.50
2022-12-03T20:26:21.560Z,102919.59
2022-12-03T20:28:49.328Z,102918.81
2022-12-03T20:31:18.969Z,102916.41
2022-12-03T20:33:47.475Z,102915.00
2022-12-03T20:36:15.718Z,102916.34
2022-12-03T20:38:43.017Z,102918.09
2022-12-03T20:41:12.102Z,102914.38
2022-12-03T20:43:39.332Z,102911.44
2022-12-03T20:46:10.767Z,102909.72
2022-12-03T20:48:38.766Z,102920.81
2022-12-03T20:51:06.647Z,102911.25
2022-12-03T20:53:34.335Z,102907.44
2022-12-03T20:56:02.289Z,102904.91
2022-12-03T20:58:30.613Z,102903.00
2022-12-03T21:01:15.341Z,102903.88
2022-12-03T21:03:44.180Z,102898.06
2022-12-03T21:06:11.935Z,102890.13
2022-12-03T21:08:41.943Z,102903.00
2022-12-03T21:11:14.218Z,102897.69
2022-12-03T21:13:43.719Z,102897.38
2022-12-03T21:16:13.181Z,102894.25
2022-12-03T21:18:41.162Z,102891.34
2022-12-03T21:21:08.741Z,102893.56
2022-12-03T21:23:36.494Z,102891.47
2022-12-03T21:26:03.717Z,102889.59
2022-12-03T21:28:31.157Z,102884.41
2022-12-03T21:31:02.493Z,102891.06
2022-12-03T21:33:30.196Z,102886.78
2022-12-03T21:35:57.829Z,102885.69
2022-12-03T21:38:25.846Z,102886.03
2022-12-03T21:40:53.562Z,102887.53
2022-12-03T21:43:21.278Z,102889.88
2022-12-03T21:45:48.951Z,102889.34
2022-12-03T21:48:17.004Z,102876.41
2022-12-03T21:50:44.627Z,102879.78
2022-12-03T21:53:12.575Z,102885.56
2022-12-03T21:55:40.858Z,102877.19
2022-12-03T21:58:08.961Z,102877.72
2022-12-03T22:00:36.186Z,102878.81
2022-12-03T22:03:03.708Z,102872.19
2022-12-03T22:05:31.004Z,102880.78
2022-12-03T22:07:58.403Z,102882.03
2022-12-03T22:10:25.674Z,102878.53
2022-12-03T22:12:53.080Z,102880.28
2022-12-03T22:15:20.345Z,102871.13
2022-12-03T22:17:48.125Z,102872.00
2022-12-03T22:20:15.683Z,102876.75
2022-12-03T22:22:42.944Z,102875.06
2022-12-03T22:25:10.264Z,102877.59
2022-12-03T22:27:37.523Z,102874.50
2022-12-03T22:30:05.061Z,102867.75
2022-12-03T22:32:32.401Z,102876.66
2022-12-03T22:34:59.638Z,102878.81
2022-12-03T22:37:26.904Z,102874.09
2022-12-03T22:39:54.480Z,102869.06
2022-12-03T22:42:22.042Z,102874.47
2022-12-03T22:44:49.429Z,102879.03
2022-12-03T22:47:16.790Z,102876.22
2022-12-03T22:49:43.961Z,102880.78
2022-12-03T22:52:11.223Z,102890.47
2022-12-03T22:54:38.480Z,102889.16
2022-12-03T22:57:05.928Z,102892.47
2022-12-03T22:59:33.253Z,102878.69
2022-12-03T23:02:00.614Z,102883.34
2022-12-03T23:04:27.851Z,102873.47
2022-12-03T23:06:55.108Z,102878.91
2022-12-03T23:09:22.423Z,102878.06
2022-12-03T23:11:49.649Z,102874.06
2022-12-03T23:14:16.841Z,102874.72
2022-12-03T23:16:44.249Z,102867.59
2022-12-03T23:19:11.864Z,102865.22
2022-12-03T23:21:39.059Z,102877.13
2022-12-03T23:24:06.565Z,102874.56
2022-12-03T23:26:35.807Z,102869.16
2022-12-03T23:29:03.354Z,102869.59
2022-12-03T23:31:30.978Z,102872.53
2022-12-03T23:33:59.318Z,102878.53
2022-12-03T23:36:27.931Z,102865.63
2022-12-03T23:38:55.313Z,102873.72
2022-12-03T23:41:23.100Z,102872.34
2022-12-03T23:43:50.483Z,102878.78
2022-12-03T23:46:20.166Z,102867.81
2022-12-03T23:48:47.598Z,102865.63
2022-12-03T23:51:16.482Z,102866.38
2022-12-03T23:53:44.983Z,102869.41
2022-12-03T23:56:13.541Z,102873.84
2022-12-03T23:58:40.815Z,102874.31
